Time;durP1;ratioP1;P1;durP2;ratioP2;P2;SDS_P1;SDS_P2;PMS_P1;PMS_P2;Temp;Humidity;BMP_temperature;BMP_pressure;BME280_temperature;BME280_humidity;BME280_pressure;Samples;Min_cycle;Max_cycle;Signal;HPM_P1;HPM_P2
2022/11/20 00:00:52;;;;;;;21.33;11.60;;;1.50;99.90;;;;;;5057788;28;20057;-76
2022/11/20 00:03:18;;;;;;;21.95;12.52;;;2.00;99.90;;;;;;5057758;28;20481;-77
2022/11/20 00:05:44;;;;;;;22.08;10.45;;;0.90;99.90;;;;;;5074359;28;20055;-77
2022/11/20 00:08:11;;;;;;;21.35;11.45;;;0.80;99.90;;;;;;5074620;28;20110;-77
2022/11/20 00:10:37;;;;;;;24.35;12.38;;;0.90;99.90;;;;;;5041105;28;20053;-80
2022/11/20 00:13:04;;;;;;;25.17;12.63;;;1.70;99.90;;;;;;5074517;28;20098;-77
2022/11/20 00:15:30;;;;;;;25.95;13.00;;;1.20;99.90;;;;;;5057599;28;20087;-78
2022/11/20 00:17:55;;;;;;;24.98;13.00;;;1.00;99.90;;;;;;5073625;28;20084;-77
2022/11/20 00:20:21;;;;;;;23.67;12.60;;;1.30;99.90;;;;;;5057509;28;20092;-77
2022/11/20 00:22:47;;;;;;;23.67;12.35;;;1.60;99.90;;;;;;5057399;28;20048;-77
2022/11/20 00:25:13;;;;;;;26.13;13.40;;;0.80;99.90;;;;;;5057378;28;20048;-77
2022/11/20 00:27:39;;;;;;;23.58;12.45;;;0.80;99.90;;;;;;5040732;28;20047;-77
2022/11/20 00:30:05;;;;;;;22.08;11.45;;;0.80;99.90;;;;;;5057181;28;20477;-77
2022/11/20 00:32:31;;;;;;;25.88;12.70;;;0.80;99.90;;;;;;5040676;28;20048;-77
2022/11/20 00:34:56;;;;;;;21.90;11.48;;;0.90;99.90;;;;;;5057230;28;20090;-77
2022/11/20 00:37:22;;;;;;;24.33;12.63;;;0.90;99.90;;;;;;5057018;28;20044;-77
2022/11/20 00:39:48;;;;;;;32.92;13.45;;;1.10;99.90;;;;;;5056908;28;20374;-77
2022/11/20 00:42:13;;;;;;;24.85;11.98;;;0.90;99.90;;;;;;5073629;28;20044;-77
2022/11/20 00:44:39;;;;;;;22.85;12.30;;;0.90;99.90;;;;;;5057511;28;20078;-77
2022/11/20 00:47:05;;;;;;;21.85;11.85;;;1.70;99.90;;;;;;5073719;28;20063;-77
2022/11/20 00:49:30;;;;;;;22.52;11.98;;;1.70;99.90;;;;;;5073726;28;20098;-77
2022/11/20 00:51:56;;;;;;;22.75;12.20;;;1.90;99.90;;;;;;5056754;28;20397;-77
2022/11/20 00:54:22;;;;;;;22.80;12.18;;;1.70;99.90;;;;;;5073682;28;20115;-77
2022/11/20 00:56:47;;;;;;;21.88;12.32;;;1.00;99.90;;;;;;5073226;28;20048;-77
2022/11/20 00:59:13;;;;;;;25.80;12.07;;;1.00;99.90;;;;;;5039808;28;20057;-77
2022/11/20 01:01:39;;;;;;;20.25;11.15;;;1.80;99.90;;;;;;5073611;28;20132;-77
2022/11/20 01:04:05;;;;;;;23.83;12.05;;;1.10;99.90;;;;;;5056526;28;20148;-77
2022/11/20 01:06:36;;;;;;;22.73;12.40;;;1.80;99.90;;;;;;5056633;28;20074;-77
2022/11/20 01:09:06;;;;;;;21.10;11.82;;;1.70;99.90;;;;;;5073187;28;20056;-77
2022/11/20 01:11:35;;;;;;;23.20;11.93;;;1.70;99.90;;;;;;5073362;28;20048;-77
2022/11/20 01:14:03;;;;;;;21.38;11.60;;;1.00;99.90;;;;;;5056480;28;20052;-77
2022/11/20 01:16:32;;;;;;;22.27;11.00;;;1.20;99.90;;;;;;5072947;28;20040;-77
2022/11/20 01:19:00;;;;;;;21.92;11.80;;;0.90;99.90;;;;;;5072873;28;20048;-77
2022/11/20 01:21:32;;;;;;;20.73;10.80;;;0.90;99.90;;;;;;5056329;28;20049;-77
2022/11/20 01:23:58;;;;;;;22.27;11.95;;;1.00;99.90;;;;;;5056350;28;20071;-78
2022/11/20 01:26:27;;;;;;;21.60;11.40;;;1.00;99.90;;;;;;5040096;28;20049;-77
2022/11/20 01:28:54;;;;;;;21.60;10.50;;;1.70;99.90;;;;;;5072737;28;20092;-77
2022/11/20 01:31:22;;;;;;;22.65;11.63;;;1.00;99.90;;;;;;5056156;28;20056;-78
2022/11/20 01:33:50;;;;;;;23.88;12.32;;;1.80;99.90;;;;;;5056119;28;20045;-77
2022/11/20 01:36:17;;;;;;;21.13;11.00;;;1.90;99.90;;;;;;5072936;28;20189;-77
2022/11/20 01:38:44;;;;;;;22.58;11.05;;;1.10;99.90;;;;;;5072573;28;20491;-77
2022/11/20 01:43:20;;;;;;;23.02;11.45;;;1.10;99.90;;;;;;5071790;28;20048;-77
2022/11/20 01:43:56;;;;;;;20.10;10.88;;;2.00;99.90;;;;;;5072329;28;20064;-77
2022/11/20 01:46:22;;;;;;;21.48;11.23;;;1.10;99.90;;;;;;5072510;28;20515;-77
2022/11/20 01:48:56;;;;;;;20.80;10.93;;;1.10;99.90;;;;;;5056256;28;20051;-77
2022/11/20 01:52:03;;;;;;;20.25;10.43;;;1.60;99.90;;;;;;5072433;28;20120;-78
2022/11/20 01:54:36;;;;;;;21.75;11.43;;;1.00;99.90;;;;;;5014939;28;20053;-77
2022/11/20 01:57:05;;;;;;;22.58;10.48;;;1.00;99.90;;;;;;4998297;28;20120;-77
2022/11/20 01:59:31;;;;;;;21.48;10.77;;;1.30;99.90;;;;;;5028402;28;20132;-77
2022/11/20 02:01:57;;;;;;;19.63;11.32;;;1.40;99.90;;;;;;5055599;28;20131;-77
2022/11/20 02:04:23;;;;;;;19.85;10.88;;;1.00;99.90;;;;;;5055454;28;20060;-78
2022/11/20 02:06:59;;;;;;;23.25;11.00;;;1.00;99.90;;;;;;5055651;28;20503;-77
2022/11/20 02:09:24;;;;;;;21.52;10.70;;;1.00;99.90;;;;;;5055391;28;20123;-77
2022/11/20 02:11:50;;;;;;;21.17;10.98;;;1.00;99.90;;;;;;5072117;28;20131;-77
2022/11/20 02:14:16;;;;;;;21.10;11.32;;;1.00;99.90;;;;;;5038696;28;20063;-77
2022/11/20 02:16:46;;;;;;;19.63;10.43;;;1.60;99.90;;;;;;5038752;28;20040;-77
2022/11/20 02:19:25;;;;;;;21.63;10.85;;;1.00;99.90;;;;;;5072103;28;20102;-77
2022/11/20 02:22:28;;;;;;;20.33;10.60;;;2.00;99.90;;;;;;5071886;28;20139;-77
2022/11/20 02:24:55;;;;;;;22.45;10.40;;;1.10;99.90;;;;;;5055306;28;20115;-77
2022/11/20 02:27:22;;;;;;;20.92;10.05;;;1.10;99.90;;;;;;5071875;28;20059;-78
2022/11/20 02:30:03;;;;;;;20.40;10.77;;;1.10;99.90;;;;;;5055392;28;20127;-77
2022/11/20 02:32:31;;;;;;;20.73;10.57;;;1.10;99.90;;;;;;5072113;28;20092;-77
2022/11/20 02:34:57;;;;;;;20.75;10.15;;;2.30;99.90;;;;;;5071631;28;20044;-77
2022/11/20 02:37:30;;;;;;;18.25;10.23;;;1.20;99.90;;;;;;5054751;28;20550;-78
2022/11/20 02:39:56;;;;;;;20.65;10.63;;;1.20;99.90;;;;;;5072051;28;20049;-77
2022/11/20 02:42:21;;;;;;;20.13;10.15;;;1.20;99.90;;;;;;5038230;28;20048;-77
2022/11/20 02:44:47;;;;;;;20.15;10.60;;;1.20;99.90;;;;;;5071975;28;20045;-77
2022/11/20 02:47:13;;;;;;;19.23;10.25;;;1.20;99.90;;;;;;5054702;28;20575;-77
2022/11/20 02:49:38;;;;;;;20.08;10.20;;;2.10;99.90;;;;;;5038450;28;20055;-75
2022/11/20 02:52:04;;;;;;;17.65;10.30;;;1.80;99.90;;;;;;5038005;28;20131;-75
2022/11/20 02:54:30;;;;;;;22.40;10.80;;;1.20;99.90;;;;;;5055160;28;20059;-77
2022/11/20 02:56:56;;;;;;;19.42;10.35;;;1.20;99.90;;;;;;5071144;28;20125;-77
2022/11/20 02:59:22;;;;;;;20.42;10.20;;;1.20;99.90;;;;;;5037346;28;20060;-77
2022/11/20 03:01:47;;;;;;;22.52;11.35;;;1.10;99.90;;;;;;5071436;28;20048;-77
2022/11/20 03:04:13;;;;;;;19.15;10.23;;;1.10;99.90;;;;;;5054374;28;20079;-77
2022/11/20 03:06:39;;;;;;;23.60;11.20;;;1.10;99.90;;;;;;5071648;28;20045;-77
2022/11/20 03:09:04;;;;;;;21.08;10.48;;;2.10;99.90;;;;;;5071097;28;20045;-78
2022/11/20 03:11:30;;;;;;;17.13;9.70;;;1.10;99.90;;;;;;5054321;28;20045;-77
2022/11/20 03:13:56;;;;;;;20.85;11.18;;;1.10;99.90;;;;;;5054494;28;20056;-77
2022/11/20 03:16:23;;;;;;;20.83;11.00;;;1.10;99.90;;;;;;5037614;28;20090;-77
2022/11/20 03:18:51;;;;;;;21.75;10.27;;;1.20;99.90;;;;;;5071169;28;20485;-77
2022/11/20 03:21:17;;;;;;;20.60;10.15;;;2.00;99.90;;;;;;5071118;28;20485;-78
2022/11/20 03:23:43;;;;;;;19.88;10.18;;;1.10;99.90;;;;;;5054558;28;20059;-77
2022/11/20 03:26:18;;;;;;;18.67;10.60;;;1.90;99.90;;;;;;5021186;28;20044;-77
2022/11/20 03:28:49;;;;;;;19.30;10.35;;;1.10;99.90;;;;;;5071476;28;20055;-78
2022/11/20 03:31:17;;;;;;;20.77;10.88;;;1.20;99.90;;;;;;5070870;28;20370;-77
2022/11/20 03:33:43;;;;;;;24.10;11.63;;;1.50;99.90;;;;;;5054566;28;20048;-77
2022/11/20 03:36:13;;;;;;;23.15;11.25;;;1.10;99.90;;;;;;5070709;28;20041;-77
2022/11/20 03:38:39;;;;;;;19.08;10.85;;;1.10;99.90;;;;;;5054301;28;20040;-77
2022/11/20 03:41:08;;;;;;;18.55;9.60;;;1.40;99.90;;;;;;5071297;28;20083;-77
2022/11/20 03:43:34;;;;;;;19.77;10.43;;;2.20;99.90;;;;;;5071330;28;20071;-77
2022/11/20 03:46:01;;;;;;;21.35;10.18;;;1.80;99.90;;;;;;5071161;28;20473;-77
2022/11/20 03:48:27;;;;;;;20.45;10.98;;;1.20;99.90;;;;;;5070821;28;20523;-79
2022/11/20 03:51:06;;;;;;;21.60;10.25;;;1.30;99.90;;;;;;5070982;28;20048;-77
2022/11/20 03:53:31;;;;;;;19.48;10.27;;;1.30;99.90;;;;;;5053878;28;20047;-77
2022/11/20 03:55:57;;;;;;;21.98;10.57;;;1.30;99.90;;;;;;5037571;28;20044;-78
2022/11/20 03:58:23;;;;;;;19.13;10.50;;;2.20;99.90;;;;;;5053497;28;20052;-77
2022/11/20 04:00:48;;;;;;;22.52;10.35;;;1.30;99.90;;;;;;5054134;28;20484;-77
2022/11/20 04:03:14;;;;;;;24.02;11.52;;;2.20;99.90;;;;;;5070898;28;20044;-78
2022/11/20 04:05:40;;;;;;;18.08;9.68;;;1.30;99.90;;;;;;5040951;28;20358;-77
2022/11/20 04:08:05;;;;;;;19.20;10.50;;;1.30;99.90;;;;;;5058077;28;20052;-77
2022/11/20 04:10:31;;;;;;;20.52;9.77;;;1.30;99.90;;;;;;5024417;28;20401;-77
2022/11/20 04:12:57;;;;;;;19.30;9.13;;;1.30;99.90;;;;;;5041217;28;20095;-78
2022/11/20 04:15:22;;;;;;;19.90;9.93;;;1.80;99.90;;;;;;5073882;28;20048;-77
2022/11/20 04:17:48;;;;;;;18.65;9.20;;;1.30;99.90;;;;;;5073968;28;20475;-77
2022/11/20 04:20:14;;;;;;;19.95;10.40;;;2.10;99.90;;;;;;5074171;28;20544;-80
2022/11/20 04:22:40;;;;;;;18.92;10.20;;;1.30;99.90;;;;;;5057452;28;20048;-77
2022/11/20 04:25:06;;;;;;;19.20;10.02;;;1.60;99.90;;;;;;5041011;28;20445;-77
2022/11/20 04:27:31;;;;;;;22.25;10.00;;;1.30;99.90;;;;;;5057057;28;20105;-77
2022/11/20 04:29:57;;;;;;;17.50;9.65;;;1.30;99.90;;;;;;5073799;28;20459;-77
2022/11/20 04:32:23;;;;;;;17.85;10.38;;;1.30;99.90;;;;;;5056976;28;20052;-79
2022/11/20 04:34:48;;;;;;;21.10;10.75;;;1.30;99.90;;;;;;5057193;28;20047;-78
2022/11/20 04:37:14;;;;;;;19.33;10.15;;;1.30;99.90;;;;;;5073950;28;20465;-77
2022/11/20 04:39:40;;;;;;;19.77;10.40;;;1.20;99.90;;;;;;5073617;28;20048;-77
2022/11/20 04:44:49;;;;;;;19.42;10.60;;;1.20;99.90;;;;;;5073719;28;20048;-77
2022/11/20 04:47:15;;;;;;;21.80;10.57;;;1.30;99.90;;;;;;5057231;28;20055;-77
2022/11/20 04:49:41;;;;;;;20.55;10.07;;;1.30;99.90;;;;;;5073431;28;20135;-77
2022/11/20 04:52:06;;;;;;;19.58;10.48;;;2.10;99.90;;;;;;5040240;28;20048;-81
2022/11/20 04:54:32;;;;;;;18.05;9.55;;;1.40;99.90;;;;;;5056673;28;20041;-78
2022/11/20 04:56:58;;;;;;;22.33;10.70;;;2.30;99.90;;;;;;5073449;28;20048;-77
2022/11/20 04:59:23;;;;;;;23.52;11.35;;;1.20;99.90;;;;;;5056429;28;20091;-77
2022/11/20 05:01:49;;;;;;;25.20;11.90;;;1.20;99.90;;;;;;5056524;28;20578;-77
2022/11/20 05:04:15;;;;;;;20.67;11.45;;;1.80;99.90;;;;;;5056855;28;20087;-77
2022/11/20 05:06:40;;;;;;;22.63;11.48;;;1.30;99.90;;;;;;5056317;28;20102;-77
2022/11/20 05:09:06;;;;;;;24.50;12.35;;;1.30;99.90;;;;;;5073449;28;20052;-77
2022/11/20 05:11:32;;;;;;;22.08;11.90;;;1.30;99.90;;;;;;5072946;28;20079;-77
2022/11/20 05:13:59;;;;;;;22.55;11.73;;;2.00;99.90;;;;;;5056694;28;20036;-77
2022/11/20 05:16:25;;;;;;;20.38;11.00;;;2.00;99.90;;;;;;5039697;28;20405;-77
2022/11/20 05:18:52;;;;;;;19.45;10.40;;;1.40;99.90;;;;;;5056408;28;20140;-77
2022/11/20 05:21:18;;;;;;;21.95;11.38;;;2.00;99.90;;;;;;5072900;28;20382;-77
2022/11/20 05:23:44;;;;;;;21.02;10.85;;;1.10;99.90;;;;;;5056009;28;20053;-77
2022/11/20 05:26:16;;;;;;;20.77;10.77;;;1.80;99.90;;;;;;5056102;28;20060;-77
2022/11/20 05:28:42;;;;;;;;;;;1.30;99.90;;;;;;5072953;28;20143;-77
2022/11/20 05:31:10;;;;;;;22.50;11.00;;;2.00;99.90;;;;;;5056133;28;19920;-77
2022/11/20 05:33:36;;;;;;;27.50;11.98;;;1.10;99.90;;;;;;5055746;28;20420;-77
2022/11/20 05:36:03;;;;;;;21.27;11.10;;;1.00;99.90;;;;;;5056153;28;20075;-78
2022/11/20 05:38:29;;;;;;;21.17;10.90;;;1.10;99.90;;;;;;5055773;28;20094;-77
2022/11/20 05:40:54;;;;;;;22.20;10.75;;;2.20;99.90;;;;;;5072647;28;20137;-78
2022/11/20 05:43:20;;;;;;;22.52;11.20;;;1.00;99.90;;;;;;5072742;28;20514;-77
2022/11/20 05:45:53;;;;;;;21.60;11.50;;;1.00;99.90;;;;;;5055623;28;20102;-78
2022/11/20 05:48:19;;;;;;;21.25;10.27;;;1.00;99.90;;;;;;5039640;28;20044;-77
2022/11/20 05:50:45;;;;;;;22.15;10.35;;;1.00;99.90;;;;;;5072157;28;20048;-77
2022/11/20 05:53:10;;;;;;;19.73;10.55;;;1.10;99.90;;;;;;5072495;28;20472;-77
2022/11/20 05:55:36;;;;;;;23.27;11.05;;;1.20;99.90;;;;;;5072010;28;20137;-77
2022/11/20 05:58:02;;;;;;;21.70;10.93;;;1.10;99.90;;;;;;5071792;28;20036;-77
2022/11/20 06:00:27;;;;;;;20.13;10.43;;;1.10;99.90;;;;;;5055662;28;20044;-84
2022/11/20 06:02:53;;;;;;;22.75;10.73;;;1.60;99.90;;;;;;5055662;28;20150;-77
2022/11/20 06:05:19;;;;;;;23.10;10.77;;;1.10;99.90;;;;;;5055800;28;20126;-78
2022/11/20 06:07:44;;;;;;;21.27;11.32;;;1.20;99.90;;;;;;5055352;28;20117;-78
2022/11/20 06:10:11;;;;;;;20.05;11.32;;;1.20;99.90;;;;;;5055613;28;20098;-77
2022/11/20 06:12:36;;;;;;;24.55;11.82;;;1.20;99.90;;;;;;5071729;28;20041;-77
2022/11/20 06:15:03;;;;;;;19.20;10.82;;;1.20;99.90;;;;;;5072077;28;20043;-77
2022/11/20 06:17:29;;;;;;;22.05;10.90;;;1.20;99.90;;;;;;5071663;28;20048;-77
2022/11/20 06:19:55;;;;;;;19.98;10.70;;;1.30;99.90;;;;;;5071888;28;20051;-77
2022/11/20 06:22:20;;;;;;;20.55;11.07;;;1.20;99.90;;;;;;5055422;28;20040;-77
2022/11/20 06:24:47;;;;;;;19.75;10.70;;;2.30;99.90;;;;;;5055042;28;20040;-77
2022/11/20 06:27:12;;;;;;;22.98;11.25;;;1.20;99.90;;;;;;5071663;28;20056;-77
2022/11/20 06:29:38;;;;;;;21.40;11.10;;;1.30;99.90;;;;;;5071504;28;20523;-77
2022/11/20 06:32:04;;;;;;;19.85;10.93;;;1.20;99.90;;;;;;5055127;28;20055;-77
2022/11/20 06:34:29;;;;;;;21.38;11.00;;;1.20;99.90;;;;;;5071555;28;20207;-78
2022/11/20 06:36:55;;;;;;;20.85;11.32;;;1.20;99.90;;;;;;5054535;28;20131;-78
2022/11/20 06:39:21;;;;;;;23.23;11.13;;;1.20;99.90;;;;;;5053379;28;20131;-78
2022/11/20 06:41:46;;;;;;;22.15;10.80;;;1.20;99.90;;;;;;4732651;28;10000456;-77
2022/11/20 06:44:12;;;;;;;21.42;10.82;;;1.10;99.90;;;;;;5089400;28;20048;-79
2022/11/20 06:46:38;;;;;;;19.67;10.27;;;1.20;99.90;;;;;;5089070;28;20576;-77
2022/11/20 06:49:03;;;;;;;21.02;10.68;;;1.10;99.90;;;;;;5055757;28;20048;-78
2022/11/20 06:51:29;;;;;;;20.27;10.50;;;1.10;99.90;;;;;;5088784;28;20436;-76
2022/11/20 06:53:55;;;;;;;21.83;10.13;;;1.10;99.90;;;;;;5072107;28;20070;-77
2022/11/20 06:56:21;;;;;;;24.40;11.48;;;1.00;99.90;;;;;;5089267;28;20048;-78
2022/11/20 06:58:46;;;;;;;21.35;11.23;;;1.00;99.90;;;;;;5062128;28;20098;-77
2022/11/20 07:01:14;;;;;;;20.90;11.57;;;1.10;99.90;;;;;;5052615;28;20114;-78
2022/11/20 07:03:40;;;;;;;24.85;13.05;;;1.30;99.90;;;;;;5051693;28;20077;-79
2022/11/20 07:06:12;;;;;;;23.25;12.10;;;1.00;99.90;;;;;;5033627;28;20048;-78
2022/11/20 07:08:38;;;;;;;23.15;12.00;;;1.30;99.90;;;;;;5068491;28;20083;-78
2022/11/20 07:11:06;;;;;;;24.52;12.90;;;1.40;99.90;;;;;;5068252;28;20102;-78
2022/11/20 07:13:32;;;;;;;22.02;11.52;;;1.00;99.90;;;;;;5052139;28;20478;-77
2022/11/20 07:16:06;;;;;;;25.02;12.32;;;1.00;99.90;;;;;;5068612;28;20573;-77
2022/11/20 07:18:33;;;;;;;24.15;12.50;;;1.00;99.90;;;;;;5068761;28;20123;-77
2022/11/20 07:21:07;;;;;;;23.00;12.18;;;1.00;99.90;;;;;;5035339;28;20053;-78
2022/11/20 07:23:34;;;;;;;24.92;12.30;;;1.00;99.90;;;;;;5052199;28;20500;-79
2022/11/20 07:26:07;;;;;;;25.83;12.60;;;1.60;99.90;;;;;;5052174;28;20091;-77
2022/11/20 07:28:33;;;;;;;22.50;12.60;;;1.00;99.90;;;;;;5068482;28;20044;-77
2022/11/20 07:30:59;;;;;;;22.83;12.75;;;2.10;99.90;;;;;;5068263;28;20040;-77
2022/11/20 07:33:25;;;;;;;25.02;12.15;;;1.30;99.90;;;;;;5051461;28;20575;-79
2022/11/20 07:35:51;;;;;;;23.75;12.95;;;1.00;99.90;;;;;;5052098;28;20041;-78
2022/11/20 07:38:16;;;;;;;22.23;12.75;;;1.10;99.90;;;;;;5035167;28;20045;-78
2022/11/20 07:40:42;;;;;;;27.17;13.27;;;1.30;99.90;;;;;;5061699;28;20557;-79
2022/11/20 07:43:08;;;;;;;24.88;12.60;;;1.20;99.90;;;;;;5081989;28;20094;-77
2022/11/20 07:45:34;;;;;;;25.60;12.85;;;1.20;99.90;;;;;;5072777;28;20049;-77
2022/11/20 07:47:59;;;;;;;21.45;12.20;;;1.50;99.90;;;;;;5089420;28;20050;-77
2022/11/20 07:50:25;;;;;;;25.25;12.68;;;1.20;99.90;;;;;;5062599;28;20194;-78
2022/11/20 07:52:52;;;;;;;24.15;12.68;;;1.30;99.90;;;;;;5038905;28;20048;-76
2022/11/20 07:55:18;;;;;;;24.45;13.88;;;1.30;99.90;;;;;;5056003;28;20051;-76
2022/11/20 07:57:43;;;;;;;22.38;12.93;;;1.30;99.90;;;;;;5038722;28;20040;-79
2022/11/20 08:00:11;;;;;;;21.80;12.25;;;2.10;99.90;;;;;;5038166;28;20421;-77
2022/11/20 08:02:39;;;;;;;24.27;13.00;;;1.40;99.90;;;;;;5055647;28;20064;-76
2022/11/20 08:05:05;;;;;;;23.13;13.77;;;2.30;99.90;;;;;;5055735;28;20044;-76
2022/11/20 08:07:38;;;;;;;24.45;12.93;;;1.40;99.90;;;;;;5057678;28;20063;-76
2022/11/20 08:10:04;;;;;;;22.75;12.52;;;1.50;99.90;;;;;;5074153;28;20052;-77
2022/11/20 08:15:16;;;;;;;24.90;12.43;;;1.40;99.90;;;;;;5060528;28;20052;-77
2022/11/20 08:17:42;;;;;;;21.95;12.45;;;1.50;99.90;;;;;;5057544;28;20405;-77
2022/11/20 08:20:08;;;;;;;23.48;11.93;;;1.40;99.90;;;;;;5074124;28;20082;-77
2022/11/20 08:22:34;;;;;;;19.77;10.98;;;1.50;99.90;;;;;;5074165;28;20043;-77
2022/11/20 08:25:00;;;;;;;21.98;10.52;;;1.50;99.90;;;;;;5057160;28;20049;-77
2022/11/20 08:27:26;;;;;;;21.58;11.70;;;1.50;99.90;;;;;;5073938;28;20049;-77
2022/11/20 08:29:52;;;;;;;21.23;11.20;;;2.50;99.90;;;;;;5040535;28;20044;-77
2022/11/20 08:32:17;;;;;;;19.42;10.45;;;1.50;99.90;;;;;;5074124;28;20047;-78
2022/11/20 08:34:43;;;;;;;22.05;10.75;;;1.60;99.90;;;;;;5057475;28;20127;-77
2022/11/20 08:37:09;;;;;;;19.85;10.70;;;2.00;99.90;;;;;;5056811;28;20047;-77
2022/11/20 08:39:34;;;;;;;18.38;10.45;;;1.60;99.90;;;;;;5040606;28;20566;-77
2022/11/20 08:42:00;;;;;;;19.50;10.52;;;1.40;99.90;;;;;;5057221;28;20390;-77
2022/11/20 08:44:26;;;;;;;20.95;11.13;;;1.50;99.90;;;;;;5073950;28;20048;-77
2022/11/20 08:46:51;;;;;;;20.33;11.25;;;1.50;99.90;;;;;;5073975;28;20052;-81
2022/11/20 08:49:17;;;;;;;18.60;10.45;;;1.50;99.90;;;;;;5040263;28;20044;-77
2022/11/20 08:51:43;;;;;;;21.35;10.45;;;1.50;99.90;;;;;;5073631;28;20497;-77
2022/11/20 08:54:09;;;;;;;21.33;11.52;;;2.00;99.90;;;;;;5073349;28;20041;-77
2022/11/20 08:56:35;;;;;;;21.73;11.10;;;1.50;99.90;;;;;;5038732;28;20480;-77
2022/11/20 08:59:01;;;;;;;19.73;10.73;;;1.70;99.90;;;;;;5051294;28;20493;-77
2022/11/20 09:01:27;;;;;;;21.60;11.40;;;1.90;99.90;;;;;;5070416;28;20044;-76
2022/11/20 09:03:56;;;;;;;20.02;10.25;;;1.60;99.90;;;;;;5036359;28;20045;-76
2022/11/20 09:06:22;;;;;;;18.52;10.32;;;2.00;99.90;;;;;;5070758;28;20099;-77
2022/11/20 09:08:52;;;;;;;19.42;10.55;;;2.80;99.90;;;;;;5054355;28;20080;-77
2022/11/20 09:11:18;;;;;;;19.35;9.68;;;1.70;99.90;;;;;;5069861;28;20443;-77
2022/11/20 09:13:43;;;;;;;18.27;9.60;;;1.80;99.90;;;;;;5071167;28;20536;-79
2022/11/20 09:16:10;;;;;;;18.73;9.68;;;1.70;99.90;;;;;;5070852;28;20051;-78
2022/11/20 09:18:37;;;;;;;18.35;9.73;;;1.70;99.90;;;;;;5070666;28;20044;-77
2022/11/20 09:21:06;;;;;;;17.00;9.82;;;2.50;99.90;;;;;;5052945;28;20055;-77
2022/11/20 09:23:34;;;;;;;16.20;9.60;;;1.80;99.90;;;;;;5070248;28;20496;-77
2022/11/20 09:26:10;;;;;;;21.23;10.13;;;1.80;99.90;;;;;;5070575;28;20055;-78
2022/11/20 09:28:36;;;;;;;17.88;8.98;;;1.80;99.90;;;;;;5054323;28;20052;-77
2022/11/20 09:31:09;;;;;;;17.38;9.93;;;2.00;99.90;;;;;;5053861;28;20473;-77
2022/11/20 09:33:35;;;;;;;16.02;8.45;;;1.90;99.90;;;;;;5053650;28;20049;-77
2022/11/20 09:36:01;;;;;;;19.73;10.13;;;1.80;99.90;;;;;;5070359;28;20052;-78
2022/11/20 09:38:26;;;;;;;19.42;10.15;;;2.20;99.90;;;;;;5036864;28;20477;-77
2022/11/20 09:41:05;;;;;;;19.08;9.45;;;1.80;99.90;;;;;;5069745;28;20040;-78
2022/11/20 09:44:00;;;;;;;16.88;9.02;;;1.80;99.90;;;;;;5053799;28;20566;-77
2022/11/20 09:46:34;;;;;;;17.38;9.15;;;1.90;99.90;;;;;;5060719;28;20055;-78
2022/11/20 09:49:04;;;;;;;17.73;9.35;;;1.90;99.90;;;;;;5053457;28;20055;-77
2022/11/20 09:51:53;;;;;;;18.45;9.70;;;1.80;99.90;;;;;;5053464;28;20179;-77
2022/11/20 09:54:35;;;;;;;19.55;10.35;;;1.90;99.90;;;;;;5069869;28;20047;-78
2022/11/20 09:57:11;;;;;;;21.75;9.88;;;3.10;99.90;;;;;;5053033;28;20131;-78
2022/11/20 09:59:56;;;;;;;17.30;10.23;;;1.90;99.90;;;;;;5053020;28;20163;-80
2022/11/20 10:02:37;;;;;;;16.48;9.32;;;1.90;99.90;;;;;;5055306;28;20052;-77
2022/11/20 10:05:40;;;;;;;16.58;8.52;;;2.60;99.90;;;;;;5073261;28;20392;-79
2022/11/20 10:08:15;;;;;;;16.27;9.07;;;2.00;99.90;;;;;;5062608;28;20061;-77
2022/11/20 10:11:07;;;;;;;18.70;10.18;;;2.10;99.90;;;;;;5052671;28;20049;-79
2022/11/20 10:13:39;;;;;;;;;;;2.10;99.90;;;;;;5061923;28;20405;-77
2022/11/20 10:16:17;;;;;;;17.90;8.77;;;2.20;99.90;;;;;;5069597;28;19924;-81
2022/11/20 10:19:01;;;;;;;13.70;7.05;;;2.20;99.90;;;;;;5053194;28;20532;-77
2022/11/20 10:21:35;;;;;;;16.17;9.10;;;2.10;99.90;;;;;;5052531;28;20132;-77
2022/11/20 10:24:07;;;;;;;17.30;9.68;;;2.20;99.90;;;;;;5053476;28;20489;-77
2022/11/20 10:26:44;;;;;;;;;;;2.30;99.90;;;;;;5069899;28;20054;-77
2022/11/20 10:29:16;;;;;;;17.77;9.77;;;2.30;99.90;;;;;;5069550;28;19924;-76
2022/11/20 10:31:59;;;;;;;20.98;11.73;;;2.30;99.90;;;;;;5053008;28;20405;-77
2022/11/20 10:34:34;;;;;;;24.10;13.00;;;2.40;99.90;;;;;;5068703;28;20048;-77
2022/11/20 10:37:21;;;;;;;23.52;13.82;;;2.60;99.90;;;;;;5052450;28;20374;-78
2022/11/20 10:39:53;;;;;;;26.35;14.82;;;2.40;99.90;;;;;;5067352;28;20055;-76
2022/11/20 10:42:42;;;;;;;23.63;13.10;;;2.40;99.90;;;;;;5069387;28;20061;-77
2022/11/20 10:45:26;;;;;;;19.10;10.68;;;2.50;99.90;;;;;;5052210;28;20088;-77
2022/11/20 10:48:15;;;;;;;19.80;10.13;;;3.10;99.90;;;;;;5052825;28;20055;-77
2022/11/20 10:51:03;;;;;;;15.15;8.60;;;2.90;99.90;;;;;;5069532;28;20106;-77
2022/11/20 10:53:48;;;;;;;18.27;9.40;;;2.60;99.90;;;;;;5068824;28;20051;-77
2022/11/20 10:56:23;;;;;;;18.98;9.88;;;2.50;99.90;;;;;;5069315;28;20139;-77
2022/11/20 10:59:08;;;;;;;18.65;9.93;;;2.50;99.90;;;;;;5057828;28;20496;-76
2022/11/20 11:01:41;;;;;;;20.48;10.57;;;2.60;99.90;;;;;;5069074;28;20177;-77
2022/11/20 11:04:26;;;;;;;16.55;9.13;;;2.60;99.90;;;;;;5050022;28;20102;-76
2022/11/20 11:06:57;;;;;;;14.13;7.95;;;2.70;99.90;;;;;;5051764;28;20048;-78
2022/11/20 11:09:32;;;;;;;15.93;8.40;;;2.80;99.90;;;;;;5059682;28;20068;-78
2022/11/20 11:11:58;;;;;;;15.55;9.02;;;2.90;99.90;;;;;;5068389;28;20047;-76
2022/11/20 11:14:24;;;;;;;14.77;8.40;;;2.80;99.90;;;;;;5056450;28;20032;-77
2022/11/20 11:16:57;;;;;;;13.80;7.53;;;3.90;99.90;;;;;;5058624;28;20045;-77
2022/11/20 11:19:24;;;;;;;13.70;7.07;;;3.20;99.90;;;;;;5058285;28;20036;-76
2022/11/20 11:21:53;;;;;;;14.32;8.35;;;3.10;99.90;;;;;;5075353;28;20048;-77
2022/11/20 11:24:29;;;;;;;15.00;7.60;;;2.80;99.90;;;;;;5074162;28;20496;-76
2022/11/20 11:27:06;;;;;;;15.27;7.97;;;2.90;99.90;;;;;;5057852;28;20075;-77
2022/11/20 11:29:33;;;;;;;14.48;8.35;;;2.80;99.90;;;;;;5058140;28;20040;-76
2022/11/20 11:32:15;;;;;;;12.80;7.60;;;2.80;99.90;;;;;;5057596;28;20055;-77
2022/11/20 11:34:41;;;;;;;14.45;7.72;;;2.90;99.90;;;;;;5070455;28;20063;-76
2022/11/20 11:37:23;;;;;;;15.48;8.13;;;3.30;99.90;;;;;;5074470;28;20049;-76
2022/11/20 11:39:49;;;;;;;14.15;8.07;;;3.10;99.90;;;;;;5054617;28;20408;-76
2022/11/20 11:42:19;;;;;;;12.85;7.00;;;3.10;99.90;;;;;;5058689;28;20036;-76
2022/11/20 11:45:05;;;;;;;14.90;7.68;;;3.20;99.90;;;;;;5074432;28;20059;-77
2022/11/20 11:47:58;;;;;;;11.70;6.82;;;3.20;99.90;;;;;;5045736;28;20045;-76
2022/11/20 11:50:25;;;;;;;11.95;6.95;;;3.20;99.90;;;;;;5055865;28;20060;-76
2022/11/20 11:52:53;;;;;;;13.98;7.38;;;3.20;99.90;;;;;;5074645;28;20362;-78
2022/11/20 11:55:40;;;;;;;13.48;7.35;;;3.20;99.90;;;;;;5091384;28;20044;-78
2022/11/20 11:58:15;;;;;;;13.20;7.50;;;3.10;99.90;;;;;;5091493;28;20493;-77
2022/11/20 12:00:51;;;;;;;13.07;7.57;;;3.20;99.90;;;;;;5074032;28;20056;-77
2022/11/20 12:03:27;;;;;;;15.32;8.10;;;3.20;99.90;;;;;;5074601;28;20097;-77
2022/11/20 12:06:01;;;;;;;15.43;8.43;;;3.90;99.90;;;;;;5074786;28;20055;-77
2022/11/20 12:08:50;;;;;;;18.35;9.25;;;4.40;99.90;;;;;;5074203;28;20048;-77
2022/11/20 12:11:39;;;;;;;13.95;8.40;;;3.50;99.90;;;;;;5065752;28;20107;-77
2022/11/20 12:14:35;;;;;;;15.48;8.75;;;3.60;99.90;;;;;;5037852;28;20052;-76
2022/11/20 12:17:02;;;;;;;14.02;8.30;;;3.60;99.90;;;;;;5057198;28;20055;-76
2022/11/20 12:19:33;;;;;;;13.80;8.02;;;3.70;99.90;;;;;;5073944;28;20123;-76
2022/11/20 12:22:16;;;;;;;13.05;8.25;;;3.70;99.90;;;;;;5060861;28;20055;-77
2022/11/20 12:24:54;;;;;;;13.88;8.20;;;3.60;99.90;;;;;;5072859;28;20055;-77
2022/11/20 12:27:53;;;;;;;13.82;8.55;;;3.70;99.90;;;;;;5055950;28;20041;-76
2022/11/20 12:30:21;;;;;;;14.63;8.88;;;3.90;99.90;;;;;;5078438;28;20412;-76
2022/11/20 12:32:52;;;;;;;15.10;8.85;;;3.90;99.90;;;;;;5056549;28;20586;-77
2022/11/20 12:35:36;;;;;;;14.55;8.43;;;4.00;99.90;;;;;;5072735;28;20044;-76
2022/11/20 12:38:24;;;;;;;11.95;7.47;;;4.10;99.90;;;;;;5040883;28;20131;-76
2022/11/20 12:40:56;;;;;;;13.30;7.65;;;4.10;99.90;;;;;;5072930;28;20099;-76
2022/11/20 12:46:40;;;;;;;11.52;6.32;;;4.10;99.90;;;;;;4714598;28;10000590;-76
2022/11/20 12:49:30;;;;;;;10.80;5.93;;;4.00;99.90;;;;;;5052598;28;20101;-77
2022/11/20 12:52:17;;;;;;;9.85;5.68;;;4.20;99.90;;;;;;5067433;28;20079;-76
2022/11/20 12:55:00;;;;;;;8.85;5.30;;;4.10;99.90;;;;;;5053544;28;20052;-76
2022/11/20 12:57:41;;;;;;;8.52;5.07;;;4.10;99.90;;;;;;5053819;28;20408;-76
2022/11/20 13:00:10;;;;;;;9.43;5.32;;;4.20;99.90;;;;;;5062368;28;20472;-76
2022/11/20 13:02:54;;;;;;;8.32;5.30;;;4.10;99.90;;;;;;5053652;28;20413;-76